Cheviot Hills, CA (90064)

1:19 AM PDT on August 04, 2015 (GMT -0700)
West Los Angeles | | Change Station
CLOSE
Current Station
Personal Weather Station
Location: Los Angeles, CA
Elevation: 282 ft
Nearby Weather Stations

Elev 282 ft 34.05 °N, 118.45 °W | Updated 37 seconds ago

Clear
Clear
71.4 °F
Feels Like 73 °F
N
0.0
Wind Variable Wind from NW
Gusts 0.0 mph

Today
High -- | Low -- °F
--% Chance of Precip.
Yesterday
High -- | Low -- °F
Precip. -- in
6:07 AM 7:51 PM
Waning Gibbous, 80% visible
Pressure 29.88 in
Visibility 10.0 miles
Clouds Clear
Heat Index 73 °F
Dew Point 64 °F
Humidity 77%
Rainfall 0.00 in
Snow Depth Not available.
UV 0.0 out of 12
Pollen 4.20 out of 12
Air Quality Not available.
Flu Activity Not available.
METAR KSMO 040751Z 00000KT 10SM CLR 21/17 A2988 RMK AO2 SLP117 T02060167 402500183

More Conditions Fewer Conditions

Pressure 29.88 in
Visibility 10.0 miles
Clouds Clear
Heat Index 73 °F
Dew Point 64 °F
Humidity 77%
Rainfall 0.00 in
Snow Depth Not available.
UV 0.0 out of 12
Pollen 4.20 out of 12
Air Quality Not available.
Flu Activity Not available.
METAR KSMO 040751Z 00000KT 10SM CLR 21/17 A2988 RMK AO2 SLP117 T02060167 402500183

More Conditions Fewer Conditions

10-Day Weather Forecast

×

Almanac

Astronomy

Aug. 04, 2015 Rise Set
Actual Time
Civil Twilight
Nautical Twilight
Astronomical Twilight
Moon
Length of Visible Light
Length of Day
Tomorrow will be .
, % of the Moon is Illuminated

Today's Extremes

State Highs State Lows

Community

WunderPhotos

Upload Photos

1,843,877 photos uploaded!

WunderBlogs® & News

Nearby

Air Quality

  Air Quality AQ Index Pollutant
Not available.

Snow Depth

Station Depth Elevation

Earthquake Activity

City Distance Mag. Time & Date
Minimum magnitude displayed is 2.5.

Coastal Water Temperatures

Place Temperature

Stations

Nearby Weather Stations

Station Location Temp. Windchill Dew Point Humidity Wind Precip. Elev Updated Type